createdAt,value
2023-04-20T00:00:11.220Z,0.30
2023-04-20T00:02:39.842Z,0.50
2023-04-20T00:05:10.364Z,0.50
2023-04-20T00:07:42.495Z,0.50
2023-04-20T00:10:11.301Z,0.40
2023-04-20T00:12:39.301Z,0.30
2023-04-20T00:15:08.400Z,0.30
2023-04-20T00:17:36.630Z,0.43
2023-04-20T00:20:05.271Z,0.43
2023-04-20T00:22:34.213Z,0.40
2023-04-20T00:25:03.537Z,0.30
2023-04-20T00:27:31.359Z,0.40
2023-04-20T00:30:01.637Z,0.30
2023-04-20T00:32:30.597Z,0.40
2023-04-20T00:34:58.841Z,0.40
2023-04-20T00:37:26.995Z,0.33
2023-04-20T00:39:55.195Z,0.30
2023-04-20T00:42:24.515Z,0.50
2023-04-20T00:44:52.670Z,0.40
2023-04-20T00:47:20.982Z,0.40
2023-04-20T00:49:49.225Z,0.40
2023-04-20T00:52:17.613Z,0.30
2023-04-20T00:54:45.672Z,0.30
2023-04-20T00:57:15.513Z,0.40
2023-04-20T00:59:45.057Z,0.40
2023-04-20T01:02:13.117Z,0.33
2023-04-20T01:04:41.702Z,0.30
2023-04-20T01:07:09.741Z,0.40
2023-04-20T01:09:39.380Z,0.50
2023-04-20T01:12:07.733Z,0.30
2023-04-20T01:14:36.097Z,0.40
2023-04-20T01:17:06.089Z,0.40
2023-04-20T01:19:34.255Z,0.30
2023-04-20T01:22:02.087Z,0.37
2023-04-20T01:24:31.395Z,0.30
2023-04-20T01:26:59.194Z,0.30
2023-04-20T01:29:27.451Z,0.30
2023-04-20T01:31:55.423Z,0.30
2023-04-20T01:34:23.368Z,0.50
2023-04-20T01:36:51.335Z,0.40
2023-04-20T01:39:19.583Z,0.30
2023-04-20T01:41:49.254Z,0.40
2023-04-20T01:44:17.448Z,0.33
2023-04-20T01:46:45.566Z,0.30
2023-04-20T01:49:13.477Z,0.30
2023-04-20T01:51:41.337Z,0.30
2023-04-20T01:54:09.236Z,0.30
2023-04-20T01:56:38.496Z,0.30
2023-04-20T01:59:07.869Z,0.33
2023-04-20T02:01:35.708Z,0.40
2023-04-20T02:04:03.635Z,0.33
2023-04-20T02:06:32.061Z,0.30
2023-04-20T02:09:00.940Z,0.40
2023-04-20T02:11:28.822Z,0.40
2023-04-20T02:13:56.762Z,0.30
2023-04-20T02:16:29.386Z,0.40
2023-04-20T02:19:03.734Z,0.40
2023-04-20T02:21:32.547Z,0.40
2023-04-20T02:24:12.580Z,0.33
2023-04-20T02:26:41.357Z,0.50
2023-04-20T02:29:09.304Z,0.30
2023-04-20T02:31:38.648Z,0.40
2023-04-20T02:34:13.654Z,0.37
2023-04-20T02:36:41.494Z,0.50
2023-04-20T02:39:16.044Z,0.40
2023-04-20T02:41:47.172Z,0.40
2023-04-20T02:44:15.061Z,0.30
2023-04-20T02:46:45.693Z,0.40
2023-04-20T02:49:13.735Z,0.40
2023-04-20T02:51:42.583Z,0.40
2023-04-20T02:54:10.665Z,0.37
2023-04-20T02:56:38.480Z,0.40
2023-04-20T02:59:07.421Z,0.40
2023-04-20T03:01:35.454Z,0.47
2023-04-20T03:04:05.559Z,0.40
2023-04-20T03:06:33.680Z,0.47
2023-04-20T03:09:01.633Z,0.40
2023-04-20T03:11:29.595Z,0.40
2023-04-20T03:13:59.965Z,0.40
2023-04-20T03:16:28.106Z,0.40
2023-04-20T03:18:56.530Z,0.37
2023-04-20T03:21:25.815Z,0.30
2023-04-20T03:23:53.786Z,0.20
2023-04-20T03:26:21.689Z,0.30
2023-04-20T03:28:51.085Z,0.30
2023-04-20T03:31:19.154Z,0.30
2023-04-20T03:33:47.211Z,0.40
2023-04-20T03:36:15.083Z,0.30
2023-04-20T03:38:44.540Z,0.30
2023-04-20T03:41:12.407Z,0.30
2023-04-20T03:43:41.323Z,0.37
2023-04-20T03:46:09.350Z,0.30
2023-04-20T03:48:37.372Z,0.37
2023-04-20T03:51:06.082Z,0.30
2023-04-20T03:53:34.258Z,0.33
2023-04-20T03:56:03.840Z,0.30
2023-04-20T03:58:31.750Z,0.30
2023-04-20T04:01:03.254Z,0.43
2023-04-20T04:03:32.399Z,0.30
2023-04-20T04:06:00.459Z,0.30
2023-04-20T04:08:30.558Z,0.30
2023-04-20T04:10:58.516Z,0.30
2023-04-20T04:13:28.041Z,0.30
2023-04-20T04:15:56.109Z,0.30
2023-04-20T04:18:24.129Z,0.43
2023-04-20T04:20:51.987Z,0.30
2023-04-20T04:23:20.114Z,0.40
2023-04-20T04:25:48.700Z,0.40
2023-04-20T04:28:17.118Z,0.40
2023-04-20T04:30:47.388Z,0.40
2023-04-20T04:33:15.539Z,0.33
2023-04-20T04:35:43.995Z,0.40
2023-04-20T04:38:13.041Z,0.40
2023-04-20T04:40:45.885Z,0.40
2023-04-20T04:43:13.837Z,0.40
2023-04-20T04:45:42.057Z,0.40
2023-04-20T04:48:12.256Z,0.40
2023-04-20T04:50:41.605Z,0.40
2023-04-20T04:53:09.615Z,0.40
2023-04-20T04:55:37.436Z,0.40
2023-04-20T04:58:05.617Z,0.30
2023-04-20T05:00:33.613Z,0.43
2023-04-20T05:03:01.654Z,0.40
2023-04-20T05:05:31.254Z,0.40
2023-04-20T05:07:59.317Z,0.40
2023-04-20T05:10:27.416Z,0.40
2023-04-20T05:12:55.494Z,0.50
2023-04-20T05:15:23.436Z,0.40
2023-04-20T05:17:52.047Z,0.40
2023-04-20T05:20:20.803Z,0.40
2023-04-20T05:22:50.041Z,0.40
2023-04-20T05:25:23.578Z,0.40
2023-04-20T05:27:51.551Z,0.50
2023-04-20T05:30:22.130Z,0.50
2023-04-20T05:32:51.471Z,0.47
2023-04-20T05:35:21.246Z,0.53
2023-04-20T05:37:51.695Z,0.40
2023-04-20T05:40:19.539Z,0.47
2023-04-20T05:42:47.479Z,0.50
2023-04-20T05:45:15.459Z,0.40
2023-04-20T05:47:54.122Z,0.50
2023-04-20T05:50:22.924Z,0.50
2023-04-20T05:52:52.417Z,0.50
2023-04-20T05:55:22.753Z,0.40
2023-04-20T05:57:52.553Z,0.50
2023-04-20T06:00:23.868Z,0.57
2023-04-20T06:02:56.184Z,0.43
2023-04-20T06:05:24.610Z,0.50
2023-04-20T06:07:54.153Z,0.50
2023-04-20T06:10:22.131Z,0.40
2023-04-20T06:12:52.802Z,0.50
2023-04-20T06:15:20.920Z,0.50
2023-04-20T06:17:50.820Z,0.40
2023-04-20T06:20:19.825Z,0.40
2023-04-20T06:22:47.989Z,0.40
2023-04-20T06:25:18.013Z,0.50
2023-04-20T06:27:46.802Z,0.40
2023-04-20T06:30:16.289Z,0.40
2023-04-20T06:32:46.490Z,0.50
2023-04-20T06:35:14.697Z,0.40
2023-04-20T06:37:43.776Z,0.40
2023-04-20T06:40:16.280Z,0.40
2023-04-20T06:42:56.594Z,0.40
2023-04-20T06:45:32.912Z,0.40
2023-04-20T06:48:30.811Z,0.40
2023-04-20T06:51:48.112Z,0.50
2023-04-20T06:54:39.958Z,0.40
2023-04-20T06:57:09.732Z,0.37
2023-04-20T06:59:40.492Z,0.50
2023-04-20T07:02:12.857Z,0.40
2023-04-20T07:04:44.085Z,0.50
2023-04-20T07:07:16.150Z,0.30
2023-04-20T07:09:46.976Z,0.50
2023-04-20T07:12:16.017Z,0.40
2023-04-20T07:14:46.172Z,0.40
2023-04-20T07:17:14.453Z,0.47
2023-04-20T07:19:43.516Z,0.50
2023-04-20T07:22:13.361Z,0.40
2023-04-20T07:24:41.804Z,0.40
2023-04-20T07:27:09.923Z,0.40
2023-04-20T07:29:43.477Z,0.50
2023-04-20T07:32:13.985Z,0.40
2023-04-20T07:34:42.648Z,0.43
2023-04-20T07:37:10.995Z,0.40
2023-04-20T07:39:40.319Z,0.40
2023-04-20T07:42:08.370Z,0.50
2023-04-20T07:44:36.797Z,0.40
2023-04-20T07:47:06.760Z,0.40
2023-04-20T07:49:46.523Z,0.50
2023-04-20T07:52:17.280Z,0.40
2023-04-20T07:54:46.723Z,0.40
2023-04-20T07:57:17.053Z,0.40
2023-04-20T07:59:48.026Z,0.33
2023-04-20T08:05:23.196Z,0.50
2023-04-20T08:16:35.222Z,0.40
2023-04-20T08:21:45.437Z,0.40
2023-04-20T08:27:24.235Z,0.30
2023-04-20T08:29:57.678Z,0.40
2023-04-20T08:32:27.179Z,0.30
2023-04-20T08:34:56.854Z,0.40
2023-04-20T08:37:25.604Z,0.40
2023-04-20T08:39:54.147Z,0.40
2023-04-20T08:42:28.279Z,0.43
2023-04-20T08:45:00.960Z,0.50
2023-04-20T08:47:29.715Z,0.40
2023-04-20T08:50:00.374Z,0.33
2023-04-20T08:52:28.960Z,0.50
2023-04-20T08:54:57.954Z,0.40
2023-04-20T08:57:41.012Z,0.40
2023-04-20T09:03:47.334Z,0.40
2023-04-20T09:07:10.488Z,0.40
2023-04-20T09:09:40.525Z,0.40
2023-04-20T09:12:10.422Z,0.40
2023-04-20T09:14:45.018Z,0.40
2023-04-20T09:17:16.724Z,0.40
2023-04-20T09:19:58.202Z,0.30
2023-04-20T09:22:37.187Z,0.40
2023-04-20T09:25:15.279Z,0.30
2023-04-20T09:31:47.158Z,0.50
2023-04-20T09:47:07.306Z,0.30
2023-04-20T09:52:57.851Z,0.30
2023-04-20T09:55:27.794Z,0.30
2023-04-20T09:57:59.774Z,0.30
2023-04-20T10:00:38.753Z,0.30
2023-04-20T10:03:10.854Z,0.30
2023-04-20T10:05:44.420Z,0.30
2023-04-20T10:08:17.189Z,0.40
2023-04-20T10:10:49.098Z,0.30
2023-04-20T10:13:22.120Z,0.40
2023-04-20T10:15:52.933Z,0.40
2023-04-20T10:28:10.075Z,0.30
2023-04-20T10:30:51.636Z,0.30
2023-04-20T10:33:23.238Z,0.37
2023-04-20T10:35:54.354Z,0.40
2023-04-20T10:41:42.923Z,0.30
2023-04-20T10:44:12.409Z,0.30
2023-04-20T10:46:42.876Z,0.30
2023-04-20T10:49:19.641Z,0.30
2023-04-20T10:51:57.926Z,0.30
2023-04-20T10:54:39.703Z,0.40
2023-04-20T10:57:32.762Z,0.37
2023-04-20T11:00:28.951Z,0.30
2023-04-20T11:03:17.565Z,0.33
2023-04-20T11:06:10.430Z,0.40
2023-04-20T11:08:56.610Z,0.30
2023-04-20T11:11:27.736Z,0.40
2023-04-20T11:14:08.699Z,0.30
2023-04-20T11:16:50.470Z,0.33
2023-04-20T11:19:28.053Z,0.40
2023-04-20T11:21:56.893Z,0.30
2023-04-20T11:24:29.165Z,0.30
2023-04-20T11:26:58.894Z,0.30
2023-04-20T11:29:32.756Z,0.30
2023-04-20T11:32:04.160Z,0.27
2023-04-20T11:34:40.718Z,0.30
2023-04-20T11:37:12.914Z,0.20
2023-04-20T11:39:42.735Z,0.30
2023-04-20T11:42:14.614Z,0.30
2023-04-20T11:44:45.375Z,0.30
2023-04-20T11:47:17.608Z,0.20
2023-04-20T11:49:49.205Z,0.20
2023-04-20T11:52:18.239Z,0.20
2023-04-20T11:54:47.110Z,0.20
2023-04-20T11:57:15.321Z,0.20
2023-04-20T11:59:47.978Z,0.20
2023-04-20T12:02:16.098Z,0.20
2023-04-20T12:04:44.361Z,0.20
2023-04-20T12:08:03.217Z,0.20
2023-04-20T12:10:31.245Z,0.20
2023-04-20T12:13:00.112Z,0.20
2023-04-20T12:15:28.609Z,0.20
2023-04-20T12:17:56.777Z,0.23
2023-04-20T12:20:40.544Z,0.20
2023-04-20T12:23:10.175Z,0.20
2023-04-20T12:25:38.811Z,0.20
2023-04-20T12:28:07.918Z,0.30
2023-04-20T12:30:36.372Z,0.20
2023-04-20T12:33:09.121Z,0.30
2023-04-20T12:35:42.885Z,0.10
2023-04-20T12:38:14.875Z,0.30
2023-04-20T12:40:43.236Z,0.20
2023-04-20T12:43:11.707Z,0.20
2023-04-20T12:45:41.117Z,0.30
2023-04-20T12:51:10.459Z,0.20
2023-04-20T12:53:40.801Z,0.20
2023-04-20T12:56:10.698Z,0.20
2023-04-20T12:58:39.020Z,0.20
2023-04-20T13:01:07.981Z,0.20
2023-04-20T13:03:36.891Z,0.30
2023-04-20T13:06:07.518Z,0.30
2023-04-20T13:08:42.461Z,0.20
2023-04-20T13:11:32.363Z,0.30
2023-04-20T13:14:31.922Z,0.20
2023-04-20T13:17:01.922Z,0.20
2023-04-20T13:19:30.792Z,0.23
2023-04-20T13:22:00.243Z,0.20
2023-04-20T13:24:29.703Z,0.20
2023-04-20T13:27:00.717Z,0.20
2023-04-20T13:29:29.018Z,0.20
2023-04-20T13:31:57.156Z,0.30
2023-04-20T13:34:27.370Z,0.20
2023-04-20T13:36:56.053Z,0.20
2023-04-20T13:39:27.988Z,0.20
2023-04-20T13:41:59.786Z,0.20
2023-04-20T13:44:53.339Z,0.20
2023-04-20T13:47:22.631Z,0.20
2023-04-20T13:49:50.735Z,0.20
2023-04-20T13:52:19.081Z,0.20
2023-04-20T13:54:47.072Z,0.20
2023-04-20T13:57:19.390Z,0.20
2023-04-20T14:00:09.838Z,0.20
2023-04-20T14:05:53.563Z,0.20
2023-04-20T14:08:23.393Z,0.20
2023-04-20T14:11:27.616Z,0.20
2023-04-20T14:13:56.971Z,0.20
2023-04-20T14:16:54.475Z,0.20
2023-04-20T14:19:23.621Z,0.20
2023-04-20T14:21:51.680Z,0.30
2023-04-20T14:24:20.264Z,0.20
2023-04-20T14:26:49.483Z,0.20
2023-04-20T14:29:20.424Z,0.20
2023-04-20T14:31:51.060Z,0.20
2023-04-20T14:34:19.439Z,0.20
2023-04-20T14:36:49.903Z,0.20
2023-04-20T14:39:20.633Z,0.20
2023-04-20T14:41:51.933Z,0.20
2023-04-20T14:44:23.039Z,0.20
2023-04-20T14:46:51.845Z,0.20
2023-04-20T14:49:20.884Z,0.20
2023-04-20T14:51:51.064Z,0.20
2023-04-20T14:54:29.071Z,0.20
2023-04-20T14:56:58.598Z,0.20
2023-04-20T14:59:41.576Z,0.20
2023-04-20T15:02:18.796Z,0.20
2023-04-20T15:04:52.948Z,0.20
2023-04-20T15:08:17.519Z,0.20
2023-04-20T15:10:56.709Z,0.20
2023-04-20T15:13:26.866Z,0.20
2023-04-20T15:15:57.565Z,0.20
2023-04-20T15:18:25.766Z,0.20
2023-04-20T15:20:54.545Z,0.20
2023-04-20T15:23:37.995Z,0.20
2023-04-20T15:26:08.083Z,0.20
2023-04-20T15:28:36.336Z,0.20
2023-04-20T15:31:10.764Z,0.30
2023-04-20T15:33:43.411Z,0.30
2023-04-20T15:36:21.308Z,0.20
2023-04-20T15:38:50.450Z,0.23
2023-04-20T15:41:18.737Z,0.30
2023-04-20T15:43:48.958Z,0.20
2023-04-20T15:46:24.618Z,0.20
2023-04-20T15:48:53.160Z,0.30
2023-04-20T15:51:21.264Z,0.20
2023-04-20T15:53:50.968Z,0.20
2023-04-20T15:56:22.774Z,0.20
2023-04-20T15:58:51.706Z,0.20
2023-04-20T16:01:22.762Z,0.20
2023-04-20T16:03:51.020Z,0.20
2023-04-20T16:06:20.947Z,0.20
2023-04-20T16:08:53.479Z,0.20
2023-04-20T16:11:21.859Z,0.20
2023-04-20T16:13:51.068Z,0.20
2023-04-20T16:16:19.776Z,0.20
2023-04-20T16:18:49.485Z,0.30
2023-04-20T16:21:18.656Z,0.20
2023-04-20T16:23:46.925Z,0.20
2023-04-20T16:26:16.270Z,0.20
2023-04-20T16:28:45.275Z,0.20
2023-04-20T16:31:13.322Z,0.20
2023-04-20T16:33:44.732Z,0.10
2023-04-20T16:36:16.346Z,0.20
2023-04-20T16:38:44.522Z,0.20
2023-04-20T16:41:12.667Z,0.20
2023-04-20T16:43:43.117Z,0.20
2023-04-20T16:46:13.684Z,0.20
2023-04-20T16:48:41.973Z,0.20
2023-04-20T16:51:10.041Z,0.23
2023-04-20T16:53:39.443Z,0.20
2023-04-20T16:56:11.308Z,0.20
2023-04-20T16:58:39.932Z,0.20
2023-04-20T17:01:09.569Z,0.20
2023-04-20T17:03:41.202Z,0.20
2023-04-20T17:06:14.167Z,0.20
2023-04-20T17:08:44.866Z,0.20
2023-04-20T17:11:13.914Z,0.20
2023-04-20T17:13:45.181Z,0.20
2023-04-20T17:16:13.249Z,0.20
2023-04-20T17:18:42.097Z,0.20
2023-04-20T17:21:13.990Z,0.20
2023-04-20T17:23:47.334Z,0.20
2023-04-20T17:26:17.072Z,0.20
2023-04-20T17:28:48.721Z,0.30
2023-04-20T17:31:23.589Z,0.20
2023-04-20T17:33:51.638Z,0.20
2023-04-20T17:36:19.653Z,0.30
2023-04-20T17:38:49.080Z,0.20
2023-04-20T17:41:18.139Z,0.20
2023-04-20T17:43:46.214Z,0.20
2023-04-20T17:46:15.357Z,0.37
2023-04-20T17:48:43.975Z,0.30
2023-04-20T17:51:16.995Z,0.30
2023-04-20T17:53:46.746Z,0.30
2023-04-20T17:56:17.652Z,0.20
2023-04-20T17:58:47.033Z,0.30
2023-04-20T18:01:20.455Z,0.30
2023-04-20T18:03:51.983Z,0.30
2023-04-20T18:06:20.476Z,0.20
2023-04-20T18:08:48.802Z,0.20
2023-04-20T18:11:18.474Z,0.20
2023-04-20T18:13:47.004Z,0.40
2023-04-20T18:16:15.671Z,0.30
2023-04-20T18:18:51.830Z,0.40
2023-04-20T18:21:24.391Z,0.30
2023-04-20T18:23:55.771Z,0.33
2023-04-20T18:26:25.696Z,0.30
2023-04-20T18:28:57.745Z,0.30
2023-04-20T18:31:30.445Z,0.30
2023-04-20T18:33:58.808Z,0.20
2023-04-20T18:36:28.544Z,0.40
2023-04-20T18:39:00.128Z,0.30
2023-04-20T18:41:32.443Z,0.30
2023-04-20T18:44:03.738Z,0.30
2023-04-20T18:46:32.603Z,0.27
2023-04-20T18:49:01.223Z,0.30
2023-04-20T18:51:43.683Z,0.37
2023-04-20T18:54:14.787Z,0.37
2023-04-20T18:56:46.476Z,0.30
2023-04-20T18:59:15.542Z,0.30
2023-04-20T19:01:43.936Z,0.30
2023-04-20T19:04:12.062Z,0.40
2023-04-20T19:06:40.095Z,0.30
2023-04-20T19:09:08.482Z,0.40
2023-04-20T19:11:36.728Z,0.40
2023-04-20T19:14:06.320Z,0.30
2023-04-20T19:16:35.246Z,0.40
2023-04-20T19:19:04.268Z,0.40
2023-04-20T19:21:38.874Z,0.30
2023-04-20T19:24:07.427Z,0.30
2023-04-20T19:26:36.831Z,0.30
2023-04-20T19:29:22.290Z,0.30
2023-04-20T19:31:50.407Z,0.30
2023-04-20T19:34:31.271Z,0.20
2023-04-20T19:37:02.399Z,0.40
2023-04-20T19:39:43.753Z,0.40
2023-04-20T19:42:18.912Z,0.37
2023-04-20T19:44:56.049Z,0.30
2023-04-20T19:47:25.456Z,0.40
2023-04-20T19:50:04.122Z,0.30
2023-04-20T19:55:17.571Z,0.30
2023-04-20T19:57:45.615Z,0.30
2023-04-20T20:00:15.720Z,0.33
2023-04-20T20:02:56.631Z,0.30
2023-04-20T20:05:26.193Z,0.30
2023-04-20T20:07:55.416Z,0.37
2023-04-20T20:10:23.786Z,0.40
2023-04-20T20:12:51.780Z,0.30
2023-04-20T20:15:23.425Z,0.30
2023-04-20T20:17:55.371Z,0.40
2023-04-20T20:20:24.534Z,0.30
2023-04-20T20:22:54.899Z,0.30
2023-04-20T20:28:42.945Z,0.30
2023-04-20T20:31:12.531Z,0.30
2023-04-20T20:33:42.885Z,0.30
2023-04-20T20:36:11.235Z,0.30
2023-04-20T20:38:40.738Z,0.30
2023-04-20T20:41:09.356Z,0.30
2023-04-20T20:43:37.709Z,0.30
2023-04-20T20:46:06.809Z,0.30
2023-04-20T20:48:36.290Z,0.30
2023-04-20T20:51:04.605Z,0.30
2023-04-20T20:53:32.653Z,0.30
2023-04-20T20:56:00.772Z,0.30
2023-04-20T20:58:29.914Z,0.30
2023-04-20T21:00:58.346Z,0.20
2023-04-20T21:03:28.711Z,0.30
2023-04-20T21:05:58.419Z,0.27
2023-04-20T21:08:29.985Z,0.30
2023-04-20T21:10:58.236Z,0.30
2023-04-20T21:13:26.452Z,0.40
2023-04-20T21:15:54.376Z,0.33
2023-04-20T21:18:35.887Z,0.30
2023-04-20T21:21:05.889Z,0.20
2023-04-20T21:23:35.119Z,0.23
2023-04-20T21:26:03.208Z,0.30
2023-04-20T21:28:37.177Z,0.20
2023-04-20T21:31:13.864Z,0.30
2023-04-20T21:33:42.090Z,0.23
2023-04-20T21:36:11.623Z,0.30
2023-04-20T21:38:39.998Z,0.30
2023-04-20T21:41:08.386Z,0.30
2023-04-20T21:43:38.816Z,0.30
2023-04-20T21:46:07.023Z,0.30
2023-04-20T21:48:35.142Z,0.30
2023-04-20T21:51:03.127Z,0.23
2023-04-20T21:53:34.658Z,0.30
2023-04-20T21:56:03.759Z,0.30
2023-04-20T21:58:33.274Z,0.30
2023-04-20T22:01:01.669Z,0.30
2023-04-20T22:03:34.594Z,0.30
2023-04-20T22:06:03.824Z,0.20
2023-04-20T22:08:32.052Z,0.30
2023-04-20T22:11:01.417Z,0.30
2023-04-20T22:13:33.978Z,0.30
2023-04-20T22:16:02.001Z,0.40
2023-04-20T22:18:30.692Z,0.43
2023-04-20T22:21:02.453Z,0.30
2023-04-20T22:23:34.461Z,0.33
2023-04-20T22:26:06.390Z,0.30
2023-04-20T22:28:42.199Z,0.37
2023-04-20T22:31:10.310Z,0.30
2023-04-20T22:33:43.593Z,0.30
2023-04-20T22:36:18.576Z,0.30
2023-04-20T22:38:46.668Z,0.30
2023-04-20T22:41:17.505Z,0.30
2023-04-20T22:43:45.899Z,0.30
2023-04-20T22:46:13.983Z,0.30
2023-04-20T22:48:42.624Z,0.30
2023-04-20T22:51:12.856Z,0.30
2023-04-20T22:53:41.936Z,0.30
2023-04-20T22:56:10.338Z,0.30
2023-04-20T22:58:42.701Z,0.30
2023-04-20T23:01:10.737Z,0.30
2023-04-20T23:03:38.791Z,0.30
2023-04-20T23:06:16.733Z,0.40
2023-04-20T23:08:45.537Z,0.30
2023-04-20T23:11:16.428Z,0.30
2023-04-20T23:13:46.859Z,0.30
2023-04-20T23:16:15.023Z,0.30
2023-04-20T23:18:43.970Z,0.30
2023-04-20T23:21:12.108Z,0.30
2023-04-20T23:23:40.185Z,0.20
2023-04-20T23:26:08.542Z,0.30
2023-04-20T23:28:36.675Z,0.20
2023-04-20T23:31:07.210Z,0.30
2023-04-20T23:33:35.401Z,0.20
2023-04-20T23:36:03.346Z,0.30
2023-04-20T23:38:31.646Z,0.30
2023-04-20T23:40:59.724Z,0.40
2023-04-20T23:43:47.003Z,0.30
2023-04-20T23:46:17.175Z,0.20
2023-04-20T23:48:51.605Z,0.30
2023-04-20T23:51:21.647Z,0.30
2023-04-20T23:53:50.809Z,0.30
2023-04-20T23:56:28.690Z,0.37
